createdAt,value
2019-05-26T00:01:02.745Z,100328.80
2019-05-26T00:03:10.790Z,100328.08
2019-05-26T00:05:18.468Z,100328.53
2019-05-26T00:07:30.665Z,100336.73
2019-05-26T00:09:35.219Z,100328.63
2019-05-26T00:11:42.732Z,100330.43
2019-05-26T00:13:50.327Z,100331.80
2019-05-26T00:15:57.864Z,100337.03
2019-05-26T00:18:05.313Z,100337.84
2019-05-26T00:20:14.178Z,100332.53
2019-05-26T00:22:21.654Z,100336.48
2019-05-26T00:24:29.203Z,100331.47
2019-05-26T00:26:36.646Z,100332.61
2019-05-26T00:28:44.198Z,100333.34
2019-05-26T00:30:51.660Z,100338.32
2019-05-26T00:32:59.230Z,100322.60
2019-05-26T00:35:07.992Z,100324.61
2019-05-26T00:37:15.551Z,100324.61
2019-05-26T00:39:23.209Z,100329.22
2019-05-26T00:41:30.802Z,100330.66
2019-05-26T00:43:38.216Z,100329.70
2019-05-26T00:45:45.632Z,100324.98
2019-05-26T00:47:52.989Z,100322.13
2019-05-26T00:50:00.606Z,100326.19
2019-05-26T00:52:08.721Z,100328.58
2019-05-26T00:54:16.140Z,100321.58
2019-05-26T00:56:23.760Z,100323.67
2019-05-26T00:58:31.233Z,100328.58
2019-05-26T01:00:43.119Z,100323.11
2019-05-26T01:02:50.531Z,100332.45
2019-05-26T01:04:58.042Z,100323.41
2019-05-26T01:07:05.455Z,100326.92
2019-05-26T01:09:12.874Z,100324.17
2019-05-26T01:11:20.289Z,100320.91
2019-05-26T01:13:27.756Z,100329.55
2019-05-26T01:15:35.128Z,100327.94
2019-05-26T01:17:42.454Z,100321.71
2019-05-26T01:19:49.872Z,100317.51
2019-05-26T01:21:57.234Z,100316.00
2019-05-26T01:24:04.761Z,100322.98
2019-05-26T01:26:12.137Z,100321.19
2019-05-26T01:28:19.669Z,100320.97
2019-05-26T01:30:37.814Z,100326.47
2019-05-26T01:32:45.183Z,100323.55
2019-05-26T01:34:52.558Z,100329.89
2019-05-26T01:37:00.660Z,100324.57
2019-05-26T01:39:09.807Z,100331.52
2019-05-26T01:41:17.246Z,100320.30
2019-05-26T01:43:24.680Z,100325.72
2019-05-26T01:45:32.073Z,100332.55
2019-05-26T01:47:39.417Z,100332.93
2019-05-26T01:49:46.863Z,100342.05
2019-05-26T01:51:54.178Z,100340.36
2019-05-26T01:54:01.549Z,100352.31
2019-05-26T01:56:08.991Z,100350.06
2019-05-26T01:58:16.374Z,100360.64
2019-05-26T02:00:24.306Z,100353.20
2019-05-26T02:02:31.638Z,100359.15
2019-05-26T02:04:39.037Z,100358.20
2019-05-26T02:06:46.512Z,100358.50
2019-05-26T02:08:54.063Z,100360.59
2019-05-26T02:11:01.481Z,100362.45
2019-05-26T02:13:08.845Z,100357.28
2019-05-26T02:15:17.830Z,100362.16
2019-05-26T02:17:25.273Z,100348.75
2019-05-26T02:19:32.645Z,100353.80
2019-05-26T02:21:40.122Z,100353.27
2019-05-26T02:23:47.497Z,100344.09
2019-05-26T02:25:54.900Z,100352.08
2019-05-26T02:28:02.292Z,100361.95
2019-05-26T02:30:10.430Z,100358.22
2019-05-26T02:32:17.765Z,100364.41
2019-05-26T02:34:25.221Z,100360.86
2019-05-26T02:36:32.586Z,100353.20
2019-05-26T02:38:59.709Z,100357.41
2019-05-26T02:40:49.134Z,100356.52
2019-05-26T02:42:56.535Z,100342.36
2019-05-26T02:45:04.074Z,100346.95
2019-05-26T02:47:11.668Z,100351.08
2019-05-26T02:49:19.015Z,100352.28
2019-05-26T02:51:26.407Z,100348.41
2019-05-26T02:53:33.855Z,100348.57
2019-05-26T02:55:41.246Z,100363.80
2019-05-26T02:57:48.804Z,100357.59
2019-05-26T02:59:56.304Z,100355.23
2019-05-26T03:02:04.848Z,100361.81
2019-05-26T03:04:13.230Z,100367.08
2019-05-26T03:06:23.451Z,100365.22
2019-05-26T03:08:31.525Z,100369.78
2019-05-26T03:10:41.227Z,100366.64
2019-05-26T03:12:51.458Z,100367.95
2019-05-26T03:15:01.202Z,100370.80
2019-05-26T03:17:08.835Z,100369.27
2019-05-26T03:19:19.935Z,100356.49
2019-05-26T03:21:30.049Z,100355.72
2019-05-26T03:23:37.865Z,100360.64
2019-05-26T03:25:45.581Z,100364.59
2019-05-26T03:27:53.034Z,100359.72
2019-05-26T03:30:00.504Z,100368.41
2019-05-26T03:32:07.896Z,100366.66
2019-05-26T03:34:15.257Z,100369.97
2019-05-26T03:36:22.734Z,100368.64
2019-05-26T03:38:30.146Z,100370.24
2019-05-26T03:40:37.814Z,100365.82
2019-05-26T03:42:45.413Z,100369.03
2019-05-26T03:44:52.952Z,100364.03
2019-05-26T03:47:00.404Z,100357.44
2019-05-26T03:49:07.759Z,100362.43
2019-05-26T03:51:16.062Z,100361.11
2019-05-26T03:53:23.484Z,100363.49
2019-05-26T03:55:31.280Z,100359.83
2019-05-26T03:57:38.745Z,100358.36
2019-05-26T03:59:46.179Z,100345.53
2019-05-26T04:01:57.464Z,100358.66
2019-05-26T04:04:02.611Z,100355.17
2019-05-26T04:06:10.426Z,100350.52
2019-05-26T04:08:17.836Z,100351.64
2019-05-26T04:10:25.290Z,100353.06
2019-05-26T04:12:33.207Z,100353.98
2019-05-26T04:14:40.772Z,100357.12
2019-05-26T04:16:48.315Z,100357.58
2019-05-26T04:18:55.780Z,100354.09
2019-05-26T04:21:03.620Z,100352.95
2019-05-26T04:23:11.033Z,100350.92
2019-05-26T04:25:18.618Z,100363.03
2019-05-26T04:27:26.139Z,100367.98
2019-05-26T04:29:34.501Z,100362.14
2019-05-26T04:31:41.865Z,100366.05
2019-05-26T04:33:49.294Z,100374.40
2019-05-26T04:35:56.743Z,100372.71
2019-05-26T04:38:04.116Z,100367.22
2019-05-26T04:40:25.881Z,100371.96
2019-05-26T04:42:21.063Z,100365.97
2019-05-26T04:44:28.490Z,100369.53
2019-05-26T04:46:35.963Z,100372.21
2019-05-26T04:48:43.388Z,100370.98
2019-05-26T04:50:50.818Z,100373.11
2019-05-26T04:53:06.309Z,100368.66
2019-05-26T04:55:07.705Z,100374.07
2019-05-26T04:57:16.153Z,100371.51
2019-05-26T04:59:23.593Z,100366.22
2019-05-26T05:01:31.085Z,100370.19
2019-05-26T05:03:38.611Z,100371.14
2019-05-26T05:05:46.275Z,100374.30
2019-05-26T05:07:53.916Z,100381.75
2019-05-26T05:10:01.317Z,100377.87
2019-05-26T05:12:08.729Z,100380.34
2019-05-26T05:14:16.177Z,100386.88
2019-05-26T05:16:23.685Z,100378.17
2019-05-26T05:18:31.124Z,100380.34
2019-05-26T05:20:38.555Z,100381.77
2019-05-26T05:22:46.010Z,100378.00
2019-05-26T05:24:53.375Z,100377.05
2019-05-26T05:27:00.890Z,100383.64
2019-05-26T05:29:08.446Z,100376.86
2019-05-26T05:31:15.885Z,100376.10
2019-05-26T05:33:23.974Z,100385.44
2019-05-26T05:35:31.453Z,100384.33
2019-05-26T05:37:38.920Z,100384.96
2019-05-26T05:39:46.530Z,100382.98
2019-05-26T05:41:54.141Z,100378.45
2019-05-26T05:44:01.823Z,100377.97
2019-05-26T05:46:09.288Z,100376.83
2019-05-26T05:48:16.828Z,100382.69
2019-05-26T05:50:24.581Z,100389.11
2019-05-26T05:52:32.182Z,100375.76
2019-05-26T05:54:39.798Z,100381.23
2019-05-26T05:56:47.326Z,100370.95
2019-05-26T05:58:55.180Z,100373.76
2019-05-26T06:01:03.061Z,100374.33
2019-05-26T06:03:11.271Z,100364.22
2019-05-26T06:05:19.236Z,100377.16
2019-05-26T06:07:26.693Z,100373.16
2019-05-26T06:09:34.311Z,100374.36
2019-05-26T06:11:41.760Z,100376.61
2019-05-26T06:13:49.434Z,100371.19
2019-05-26T06:15:57.045Z,100371.67
2019-05-26T06:18:04.761Z,100373.48
2019-05-26T06:20:14.949Z,100369.81
2019-05-26T06:22:22.776Z,100370.21
2019-05-26T06:24:31.354Z,100366.98
2019-05-26T06:26:39.207Z,100373.34
2019-05-26T06:28:46.908Z,100371.16
2019-05-26T06:30:54.688Z,100373.95
2019-05-26T06:33:02.261Z,100364.48
2019-05-26T06:35:11.756Z,100375.92
2019-05-26T06:37:19.679Z,100375.75
2019-05-26T06:39:28.197Z,100374.59
2019-05-26T06:41:35.811Z,100374.38
2019-05-26T06:43:43.443Z,100376.31
2019-05-26T06:45:51.121Z,100368.30
2019-05-26T06:47:59.005Z,100376.59
2019-05-26T06:50:07.296Z,100374.25
2019-05-26T06:52:14.828Z,100376.14
2019-05-26T06:54:22.403Z,100369.08
2019-05-26T06:56:29.891Z,100369.91
2019-05-26T06:58:37.461Z,100371.86
2019-05-26T07:00:44.948Z,100364.70
2019-05-26T07:02:52.604Z,100371.44
2019-05-26T07:05:00.160Z,100369.41
2019-05-26T07:07:07.718Z,100375.96
2019-05-26T07:09:15.223Z,100384.86
2019-05-26T07:11:22.880Z,100368.08
2019-05-26T07:13:30.357Z,100371.24
2019-05-26T07:15:37.858Z,100376.67
2019-05-26T07:17:45.531Z,100377.17
2019-05-26T07:19:53.088Z,100385.59
2019-05-26T07:22:00.790Z,100386.10
2019-05-26T07:24:09.179Z,100381.11
2019-05-26T07:26:16.916Z,100381.30
2019-05-26T07:28:25.269Z,100385.77
2019-05-26T07:30:33.218Z,100390.33
2019-05-26T07:32:40.879Z,100393.01
2019-05-26T07:34:48.363Z,100392.40
2019-05-26T07:36:55.884Z,100381.27
2019-05-26T07:39:03.756Z,100384.20
2019-05-26T07:41:11.327Z,100401.47
2019-05-26T07:43:18.773Z,100392.97
2019-05-26T07:45:26.332Z,100386.00
2019-05-26T07:47:33.792Z,100384.70
2019-05-26T07:49:41.306Z,100388.63
2019-05-26T07:51:48.719Z,100379.18
2019-05-26T07:53:56.428Z,100386.76
2019-05-26T07:56:03.885Z,100387.14
2019-05-26T07:58:11.364Z,100377.68
2019-05-26T08:00:20.205Z,100380.11
2019-05-26T08:02:27.808Z,100372.69
2019-05-26T08:04:35.351Z,100373.88
2019-05-26T08:06:42.809Z,100381.45
2019-05-26T08:08:50.457Z,100382.20
2019-05-26T08:10:58.110Z,100379.92
2019-05-26T08:13:05.679Z,100378.25
2019-05-26T08:15:13.865Z,100378.63
2019-05-26T08:17:21.305Z,100378.14
2019-05-26T08:19:28.719Z,100375.55
2019-05-26T08:21:36.373Z,100374.77
2019-05-26T08:23:43.946Z,100386.91
2019-05-26T08:25:51.546Z,100384.66
2019-05-26T08:27:59.111Z,100376.45
2019-05-26T08:30:07.108Z,100381.41
2019-05-26T08:32:15.236Z,100378.81
2019-05-26T08:34:23.025Z,100385.10
2019-05-26T08:36:30.620Z,100382.73
2019-05-26T08:38:38.327Z,100367.50
2019-05-26T08:40:45.815Z,100369.88
2019-05-26T08:42:54.125Z,100378.31
2019-05-26T08:45:01.890Z,100375.80
2019-05-26T08:47:09.611Z,100371.42
2019-05-26T08:49:18.383Z,100364.92
2019-05-26T08:51:26.685Z,100358.20
2019-05-26T08:53:34.482Z,100362.82
2019-05-26T08:55:42.208Z,100359.73
2019-05-26T08:57:50.208Z,100353.67
2019-05-26T08:59:58.100Z,100353.80
2019-05-26T09:02:06.222Z,100348.49
2019-05-26T09:04:14.915Z,100350.50
2019-05-26T09:06:22.596Z,100350.64
2019-05-26T09:08:30.242Z,100352.45
2019-05-26T09:10:37.855Z,100343.88
2019-05-26T09:12:59.687Z,100342.28
2019-05-26T09:14:55.837Z,100341.27
2019-05-26T09:17:03.972Z,100346.02
2019-05-26T09:19:11.547Z,100346.56
2019-05-26T09:21:19.069Z,100341.87
2019-05-26T09:23:26.664Z,100339.34
2019-05-26T09:25:34.184Z,100344.54
2019-05-26T09:27:41.651Z,100336.62
2019-05-26T09:29:49.257Z,100340.16
2019-05-26T09:31:57.825Z,100337.88
2019-05-26T09:34:05.736Z,100337.39
2019-05-26T09:36:13.606Z,100340.22
2019-05-26T09:38:22.031Z,100332.09
2019-05-26T09:40:29.507Z,100332.44
2019-05-26T09:42:37.015Z,100323.48
2019-05-26T09:44:44.678Z,100318.02
2019-05-26T09:46:52.621Z,100310.69
2019-05-26T09:49:01.061Z,100315.78
2019-05-26T09:51:08.794Z,100304.84
2019-05-26T09:53:16.535Z,100309.73
2019-05-26T09:55:25.560Z,100315.42
2019-05-26T09:57:33.256Z,100306.77
2019-05-26T09:59:40.798Z,100302.53
2019-05-26T10:01:48.506Z,100304.27
2019-05-26T10:03:57.108Z,100304.87
2019-05-26T10:06:04.671Z,100296.78
2019-05-26T10:08:12.456Z,100301.16
2019-05-26T10:10:20.501Z,100302.44
2019-05-26T10:12:28.002Z,100300.52
2019-05-26T10:14:35.763Z,100301.25
2019-05-26T10:16:43.211Z,100298.30
2019-05-26T10:18:51.124Z,100296.05
2019-05-26T10:20:58.566Z,100291.05
2019-05-26T10:23:06.182Z,100290.90
2019-05-26T10:25:13.850Z,100290.48
2019-05-26T10:27:21.769Z,100285.88
2019-05-26T10:29:29.341Z,100288.81
2019-05-26T10:31:36.800Z,100295.55
2019-05-26T10:33:44.458Z,100279.36
2019-05-26T10:35:51.988Z,100271.63
2019-05-26T10:37:59.579Z,100279.91
2019-05-26T10:40:09.452Z,100274.98
2019-05-26T10:42:16.933Z,100274.75
2019-05-26T10:44:24.472Z,100274.01
2019-05-26T10:46:31.964Z,100273.42
2019-05-26T10:48:39.538Z,100270.38
2019-05-26T10:50:47.131Z,100272.05
2019-05-26T10:52:54.669Z,100270.17
2019-05-26T10:55:02.261Z,100273.27
2019-05-26T10:57:09.902Z,100268.91
2019-05-26T10:59:17.366Z,100261.16
2019-05-26T11:01:25.132Z,100267.53
2019-05-26T11:03:32.613Z,100260.77
2019-05-26T11:05:40.100Z,100259.52
2019-05-26T11:07:47.640Z,100260.55
2019-05-26T11:09:55.190Z,100248.26
2019-05-26T11:12:02.806Z,100245.22
2019-05-26T11:14:10.544Z,100248.86
2019-05-26T11:16:18.071Z,100248.17
2019-05-26T11:18:25.564Z,100250.72
2019-05-26T11:20:33.093Z,100247.70
2019-05-26T11:22:40.710Z,100240.73
2019-05-26T11:24:48.320Z,100245.33
2019-05-26T11:27:07.035Z,100245.81
2019-05-26T11:29:05.327Z,100233.09
2019-05-26T11:31:12.998Z,100238.61
2019-05-26T11:33:20.510Z,100232.25
2019-05-26T11:35:28.132Z,100231.85
2019-05-26T11:37:35.707Z,100234.83
2019-05-26T11:39:43.271Z,100231.62
2019-05-26T11:41:54.876Z,100230.50
2019-05-26T11:44:00.205Z,100228.59
2019-05-26T11:46:07.683Z,100232.55
2019-05-26T11:48:15.233Z,100225.52
2019-05-26T11:50:22.931Z,100214.74
2019-05-26T11:52:30.755Z,100216.99
2019-05-26T11:54:38.350Z,100219.91
2019-05-26T11:56:46.449Z,100210.98
2019-05-26T11:58:54.499Z,100217.68
2019-05-26T12:01:01.908Z,100214.70
2019-05-26T12:03:09.426Z,100213.78
2019-05-26T12:05:18.163Z,100208.37
2019-05-26T12:07:25.811Z,100212.53
2019-05-26T12:09:33.300Z,100204.27
2019-05-26T12:11:41.072Z,100204.44
2019-05-26T12:13:48.569Z,100202.60
2019-05-26T12:15:56.133Z,100206.30
2019-05-26T12:18:03.642Z,100197.62
2019-05-26T12:20:12.201Z,100190.12
2019-05-26T12:22:20.401Z,100198.70
2019-05-26T12:24:28.672Z,100191.71
2019-05-26T12:26:36.834Z,100186.13
2019-05-26T12:28:44.466Z,100186.52
2019-05-26T12:30:52.212Z,100174.45
2019-05-26T12:32:59.890Z,100175.66
2019-05-26T12:35:08.858Z,100178.95
2019-05-26T12:37:16.686Z,100176.27
2019-05-26T12:39:24.436Z,100172.22
2019-05-26T12:41:34.981Z,100180.84
2019-05-26T12:43:41.349Z,100176.77
2019-05-26T12:45:49.934Z,100175.45
2019-05-26T12:47:58.534Z,100182.30
2019-05-26T12:50:07.388Z,100175.02
2019-05-26T12:52:15.227Z,100177.92
2019-05-26T12:54:22.958Z,100166.28
2019-05-26T12:56:30.562Z,100165.75
2019-05-26T12:58:38.224Z,100164.94
2019-05-26T13:00:49.747Z,100164.08
2019-05-26T13:02:56.129Z,100161.30
2019-05-26T13:05:03.944Z,100166.72
2019-05-26T13:07:11.500Z,100161.36
2019-05-26T13:09:19.424Z,100155.87
2019-05-26T13:11:27.285Z,100158.67
2019-05-26T13:13:34.801Z,100153.31
2019-05-26T13:15:42.747Z,100139.73
2019-05-26T13:17:50.746Z,100134.47
2019-05-26T13:19:59.300Z,100137.38
2019-05-26T13:22:07.460Z,100138.81
2019-05-26T13:24:18.517Z,100139.55
2019-05-26T13:26:24.571Z,100142.14
2019-05-26T13:28:32.358Z,100134.14
2019-05-26T13:30:40.210Z,100133.50
2019-05-26T13:32:48.133Z,100134.42
2019-05-26T13:34:56.010Z,100135.19
2019-05-26T13:37:03.692Z,100135.61
2019-05-26T13:39:12.060Z,100130.30
2019-05-26T13:41:19.699Z,100137.83
2019-05-26T13:43:27.771Z,100131.66
2019-05-26T13:45:35.276Z,100136.55
2019-05-26T13:47:43.018Z,100128.73
2019-05-26T13:49:50.776Z,100147.59
2019-05-26T13:51:58.572Z,100129.74
2019-05-26T13:54:06.344Z,100129.39
2019-05-26T13:56:14.114Z,100129.79
2019-05-26T13:58:22.557Z,100135.19
2019-05-26T14:00:30.383Z,100129.15
2019-05-26T14:02:38.177Z,100126.62
2019-05-26T14:04:46.002Z,100129.28
2019-05-26T14:06:53.920Z,100129.38
2019-05-26T14:09:02.381Z,100129.12
2019-05-26T14:11:10.094Z,100137.46
2019-05-26T14:13:17.810Z,100126.28
2019-05-26T14:15:37.441Z,100132.93
2019-05-26T14:17:36.719Z,100132.41
2019-05-26T14:19:49.054Z,100134.49
2019-05-26T14:21:56.794Z,100135.72
2019-05-26T14:24:05.617Z,100119.66
2019-05-26T14:26:13.182Z,100120.36
2019-05-26T14:28:20.797Z,100116.26
2019-05-26T14:30:28.643Z,100123.82
2019-05-26T14:32:36.381Z,100118.37
2019-05-26T14:34:44.828Z,100117.04
2019-05-26T14:36:52.822Z,100115.18
2019-05-26T14:39:00.373Z,100124.66
2019-05-26T14:41:08.319Z,100126.84
2019-05-26T14:43:15.922Z,100126.45
2019-05-26T14:45:24.712Z,100125.89
2019-05-26T14:47:32.883Z,100127.20
2019-05-26T14:49:40.494Z,100125.00
2019-05-26T14:51:48.295Z,100124.22
2019-05-26T14:53:56.932Z,100123.91
2019-05-26T14:56:04.524Z,100127.28
2019-05-26T14:58:15.997Z,100127.53
2019-05-26T15:00:23.484Z,100122.49
2019-05-26T15:02:31.306Z,100123.99
2019-05-26T15:04:39.132Z,100113.99
2019-05-26T15:06:49.052Z,100112.77
2019-05-26T15:08:56.907Z,100111.87
2019-05-26T15:11:05.117Z,100114.86
2019-05-26T15:13:13.645Z,100112.27
2019-05-26T15:15:22.437Z,100113.96
2019-05-26T15:17:32.441Z,100110.92
2019-05-26T15:19:40.255Z,100108.25
2019-05-26T15:21:47.865Z,100108.64
2019-05-26T15:23:56.527Z,100105.74
2019-05-26T15:26:05.504Z,100105.52
2019-05-26T15:28:13.305Z,100103.66
2019-05-26T15:30:21.216Z,100100.17
2019-05-26T15:32:29.011Z,100100.17
2019-05-26T15:34:36.681Z,100094.87
2019-05-26T15:36:44.285Z,100099.33
2019-05-26T15:38:51.998Z,100096.85
2019-05-26T15:40:59.587Z,100093.53
2019-05-26T15:43:07.393Z,100094.29
2019-05-26T15:45:17.590Z,100093.79
2019-05-26T15:47:25.283Z,100093.53
2019-05-26T15:49:33.201Z,100089.84
2019-05-26T15:51:40.884Z,100091.39
2019-05-26T15:53:48.813Z,100089.97
2019-05-26T15:55:56.413Z,100089.48
2019-05-26T15:58:04.128Z,100094.65
2019-05-26T16:00:14.466Z,100092.90
2019-05-26T16:02:22.233Z,100096.09
2019-05-26T16:04:29.842Z,100097.74
2019-05-26T16:06:37.485Z,100084.70
2019-05-26T16:08:44.991Z,100091.05
2019-05-26T16:10:52.524Z,100096.05
2019-05-26T16:13:00.258Z,100089.42
2019-05-26T16:15:09.026Z,100092.80
2019-05-26T16:17:16.748Z,100093.11
2019-05-26T16:19:24.404Z,100091.52
2019-05-26T16:21:32.095Z,100095.47
2019-05-26T16:23:41.261Z,100083.00
2019-05-26T16:25:48.727Z,100086.53
2019-05-26T16:27:57.394Z,100079.50
2019-05-26T16:30:06.819Z,100080.45
2019-05-26T16:32:18.476Z,100077.33
2019-05-26T16:34:24.299Z,100069.64
2019-05-26T16:36:31.976Z,100067.96
2019-05-26T16:38:39.963Z,100064.89
2019-05-26T16:40:47.580Z,100056.12
2019-05-26T16:42:55.278Z,100060.02
2019-05-26T16:45:03.243Z,100065.34
2019-05-26T16:47:10.782Z,100066.62
2019-05-26T16:49:19.006Z,100063.25
2019-05-26T16:51:26.810Z,100065.28
2019-05-26T16:53:34.538Z,100063.81
2019-05-26T16:55:42.192Z,100068.98
2019-05-26T16:57:51.203Z,100066.62
2019-05-26T16:59:59.455Z,100070.49
2019-05-26T17:02:07.684Z,100066.17
2019-05-26T17:04:16.246Z,100066.67
2019-05-26T17:06:24.495Z,100063.77
2019-05-26T17:08:32.689Z,100061.20
2019-05-26T17:10:40.680Z,100079.45
2019-05-26T17:12:49.089Z,100065.66
2019-05-26T17:14:57.059Z,100075.84
2019-05-26T17:17:14.594Z,100068.16
2019-05-26T17:19:15.642Z,100071.58
2019-05-26T17:21:24.056Z,100074.28
2019-05-26T17:23:32.198Z,100077.27
2019-05-26T17:25:41.363Z,100073.82
2019-05-26T17:27:50.048Z,100068.40
2019-05-26T17:30:00.460Z,100072.89
2019-05-26T17:32:10.722Z,100071.22
2019-05-26T17:34:19.567Z,100070.25
2019-05-26T17:36:28.755Z,100067.31
2019-05-26T17:38:38.152Z,100068.17
2019-05-26T17:40:47.107Z,100070.69
2019-05-26T17:42:56.073Z,100069.22
2019-05-26T17:45:03.891Z,100063.47
2019-05-26T17:47:11.951Z,100065.22
2019-05-26T17:49:19.864Z,100064.37
2019-05-26T17:51:27.959Z,100064.19
2019-05-26T17:53:37.051Z,100071.13
2019-05-26T17:55:45.245Z,100070.56
2019-05-26T17:57:52.927Z,100067.77
2019-05-26T18:00:01.523Z,100070.56
2019-05-26T18:02:09.928Z,100065.86
2019-05-26T18:04:17.766Z,100065.45
2019-05-26T18:06:25.432Z,100068.38
2019-05-26T18:08:36.271Z,100063.48
2019-05-26T18:10:42.761Z,100075.00
2019-05-26T18:12:50.460Z,100070.52
2019-05-26T18:14:58.120Z,100071.98
2019-05-26T18:17:05.698Z,100069.61
2019-05-26T18:19:13.305Z,100066.98
2019-05-26T18:21:21.343Z,100072.15
2019-05-26T18:23:29.048Z,100069.40
2019-05-26T18:25:36.968Z,100071.47
2019-05-26T18:27:44.759Z,100071.63
2019-05-26T18:29:52.491Z,100070.67
2019-05-26T18:32:01.107Z,100080.72
2019-05-26T18:34:10.862Z,100079.48
2019-05-26T18:36:19.145Z,100086.61
2019-05-26T18:38:26.918Z,100080.84
2019-05-26T18:40:35.171Z,100083.55
2019-05-26T18:42:44.026Z,100088.72
2019-05-26T18:44:51.757Z,100088.76
2019-05-26T18:46:59.657Z,100085.67
2019-05-26T18:49:09.897Z,100095.46
2019-05-26T18:51:18.346Z,100089.59
2019-05-26T18:53:29.502Z,100090.61
2019-05-26T18:55:35.578Z,100091.98
2019-05-26T18:57:43.511Z,100097.59
2019-05-26T18:59:51.328Z,100092.77
2019-05-26T19:01:59.265Z,100094.72
2019-05-26T19:04:07.777Z,100090.95
2019-05-26T19:06:15.642Z,100090.88
2019-05-26T19:08:23.312Z,100095.09
2019-05-26T19:10:31.143Z,100100.09
2019-05-26T19:12:38.906Z,100095.98
2019-05-26T19:14:50.658Z,100099.79
2019-05-26T19:16:57.005Z,100096.17
2019-05-26T19:19:05.615Z,100097.24
2019-05-26T19:21:14.467Z,100096.14
2019-05-26T19:23:22.428Z,100099.18
2019-05-26T19:25:30.427Z,100101.98
2019-05-26T19:27:39.645Z,100098.80
2019-05-26T19:29:47.665Z,100095.33
2019-05-26T19:31:55.412Z,100097.87
2019-05-26T19:34:03.337Z,100084.71
2019-05-26T19:36:11.034Z,100093.17
2019-05-26T19:38:18.928Z,100093.55
2019-05-26T19:40:26.872Z,100095.10
2019-05-26T19:42:34.416Z,100087.48
2019-05-26T19:44:44.405Z,100087.25
2019-05-26T19:46:53.755Z,100090.03
2019-05-26T19:49:01.449Z,100097.30
2019-05-26T19:51:09.239Z,100091.38
2019-05-26T19:53:17.953Z,100091.13
2019-05-26T19:55:25.490Z,100091.86
2019-05-26T19:57:33.218Z,100086.89
2019-05-26T19:59:43.043Z,100087.87
2019-05-26T20:01:50.997Z,100089.20
2019-05-26T20:03:59.741Z,100081.70
2019-05-26T20:06:08.405Z,100083.38
2019-05-26T20:08:16.373Z,100084.02
2019-05-26T20:10:25.006Z,100080.98
2019-05-26T20:12:33.726Z,100081.23
2019-05-26T20:14:41.388Z,100078.30
2019-05-26T20:16:50.294Z,100077.12
2019-05-26T20:18:58.116Z,100075.08
2019-05-26T20:21:06.049Z,100075.42
2019-05-26T20:23:14.335Z,100075.79
2019-05-26T20:25:22.257Z,100079.65
2019-05-26T20:27:29.840Z,100083.28
2019-05-26T20:29:37.925Z,100079.39
2019-05-26T20:31:46.884Z,100083.63
2019-05-26T20:33:54.668Z,100083.38
2019-05-26T20:36:02.377Z,100076.88
2019-05-26T20:38:10.991Z,100084.00
2019-05-26T20:40:19.018Z,100084.34
2019-05-26T20:42:27.119Z,100086.99
2019-05-26T20:44:35.217Z,100084.48
2019-05-26T20:46:44.587Z,100085.30
2019-05-26T20:48:53.648Z,100084.47
2019-05-26T20:51:01.824Z,100081.92
2019-05-26T20:53:09.722Z,100081.45
2019-05-26T20:55:19.013Z,100081.09
2019-05-26T20:57:26.691Z,100081.05
2019-05-26T20:59:34.250Z,100075.63
2019-05-26T21:01:41.861Z,100082.27
2019-05-26T21:03:50.015Z,100083.35
2019-05-26T21:05:57.774Z,100084.81
2019-05-26T21:08:05.402Z,100083.16
2019-05-26T21:10:13.729Z,100081.70
2019-05-26T21:12:21.847Z,100087.38
2019-05-26T21:14:29.715Z,100086.38
2019-05-26T21:16:37.524Z,100083.22
2019-05-26T21:18:45.253Z,100080.51
2019-05-26T21:20:52.855Z,100079.56
2019-05-26T21:23:01.387Z,100081.64
2019-05-26T21:25:13.914Z,100086.38
2019-05-26T21:27:22.509Z,100083.97
2019-05-26T21:29:30.086Z,100078.20
2019-05-26T21:31:37.610Z,100081.89
2019-05-26T21:33:45.042Z,100085.58
2019-05-26T21:35:52.806Z,100083.30
2019-05-26T21:38:00.381Z,100085.33
2019-05-26T21:40:08.970Z,100087.50
2019-05-26T21:42:16.396Z,100087.98
2019-05-26T21:44:23.897Z,100082.55
2019-05-26T21:46:31.415Z,100079.99
2019-05-26T21:48:38.897Z,100083.73
2019-05-26T21:50:46.556Z,100082.27
2019-05-26T21:52:54.234Z,100081.74
2019-05-26T21:55:01.843Z,100070.88
2019-05-26T21:57:09.579Z,100075.59
2019-05-26T21:59:17.001Z,100070.29
2019-05-26T22:01:26.240Z,100071.83
2019-05-26T22:03:33.821Z,100072.77
2019-05-26T22:05:41.652Z,100069.87
2019-05-26T22:07:49.278Z,100067.45
2019-05-26T22:09:56.839Z,100070.31
2019-05-26T22:12:04.251Z,100062.74
2019-05-26T22:14:11.764Z,100062.81
2019-05-26T22:16:19.310Z,100068.40
2019-05-26T22:18:26.819Z,100058.97
2019-05-26T22:20:34.314Z,100060.44
2019-05-26T22:22:41.703Z,100057.83
2019-05-26T22:24:49.203Z,100068.84
2019-05-26T22:26:56.745Z,100064.02
2019-05-26T22:29:05.049Z,100062.08
2019-05-26T22:31:12.459Z,100062.08
2019-05-26T22:33:20.086Z,100058.72
2019-05-26T22:35:27.631Z,100055.93
2019-05-26T22:37:35.086Z,100052.68
2019-05-26T22:39:42.516Z,100051.53
2019-05-26T22:41:49.981Z,100044.70
2019-05-26T22:43:57.405Z,100042.56
2019-05-26T22:46:04.992Z,100044.37
2019-05-26T22:48:12.383Z,100044.63
2019-05-26T22:50:20.309Z,100042.09
2019-05-26T22:52:27.876Z,100039.09
2019-05-26T22:54:35.753Z,100043.91
2019-05-26T22:56:43.334Z,100042.80
2019-05-26T22:58:50.847Z,100036.77
2019-05-26T23:00:58.405Z,100035.84
2019-05-26T23:03:06.114Z,100026.79
2019-05-26T23:05:14.272Z,100025.82
2019-05-26T23:07:21.882Z,100025.23
2019-05-26T23:09:29.243Z,100033.20
2019-05-26T23:11:36.767Z,100021.06
2019-05-26T23:13:44.128Z,100024.64
2019-05-26T23:15:51.715Z,100017.39
2019-05-26T23:17:59.157Z,100014.17
2019-05-26T23:20:07.388Z,100022.88
2019-05-26T23:22:14.949Z,100023.00
2019-05-26T23:24:22.412Z,100017.56
2019-05-26T23:26:29.878Z,100025.88
2019-05-26T23:28:37.338Z,100023.36
2019-05-26T23:30:44.809Z,100021.06
2019-05-26T23:32:52.332Z,100016.41
2019-05-26T23:34:59.702Z,100010.05
2019-05-26T23:37:07.399Z,100012.95
2019-05-26T23:39:14.959Z,100015.34
2019-05-26T23:41:22.406Z,100020.66
2019-05-26T23:43:29.812Z,100015.94
2019-05-26T23:45:37.369Z,100013.29
2019-05-26T23:47:44.823Z,100016.33
2019-05-26T23:49:52.257Z,100002.34
2019-05-26T23:51:59.704Z,100000.86
2019-05-26T23:54:07.259Z,100005.70
2019-05-26T23:56:14.782Z,99998.97
2019-05-26T23:58:22.253Z,100009.91
